Time;durP1;ratioP1;P1;durP2;ratioP2;P2;SDS_P1;SDS_P2;PMS_P1;PMS_P2;Temp;Humidity;BMP_temperature;BMP_pressure;BME280_temperature;BME280_humidity;BME280_pressure;Samples;Min_cycle;Max_cycle;Signal;HPM_P1;HPM_P2
2022/01/28 00:00:30;;;;;;;3.55;0.30;;;;;;;5.49;71.27;100523.34;4906984;29;20119;-77
2022/01/28 00:03:07;;;;;;;4.38;0.70;;;;;;;5.48;71.45;100513.69;4906189;29;20035;-77
2022/01/28 00:05:37;;;;;;;1.83;0.57;;;;;;;5.56;71.75;100553.69;4920465;29;20373;-77
2022/01/28 00:08:04;;;;;;;4.63;0.82;;;;;;;5.58;71.23;100559.69;4904791;29;20469;-78
2022/01/28 00:10:30;;;;;;;2.88;0.98;;;;;;;5.60;71.59;100568.38;4919165;29;20039;-77
2022/01/28 00:21:09;;;;;;;4.18;0.63;;;;;;;5.60;72.55;100584.38;4919918;29;20071;-78
2022/01/28 00:39:46;;;;;;;6.45;0.98;;;;;;;5.18;76.93;100614.00;4904460;29;20099;-77
2022/01/28 00:42:11;;;;;;;4.93;0.90;;;;;;;5.26;76.36;100607.78;4903908;29;20036;-77
2022/01/28 00:44:37;;;;;;;6.57;0.88;;;;;;;5.25;76.36;100616.81;4916220;29;20032;-77
2022/01/28 00:47:03;;;;;;;4.55;0.80;;;;;;;5.35;76.60;100631.63;4919711;29;20375;-77
2022/01/28 00:49:28;;;;;;;4.85;0.90;;;;;;;5.25;76.34;100619.47;4895230;29;20411;-78
2022/01/28 00:51:54;;;;;;;3.47;0.90;;;;;;;5.32;76.56;100647.16;4919652;29;20054;-77
2022/01/28 00:54:19;;;;;;;8.30;1.10;;;;;;;5.30;76.44;100654.50;4887333;29;20068;-77
2022/01/28 00:56:45;;;;;;;7.13;0.90;;;;;;;5.24;76.99;100665.84;4903280;29;20040;-77
2022/01/28 00:59:11;;;;;;;6.63;0.90;;;;;;;5.27;76.75;100676.19;4903762;29;20032;-77
2022/01/28 01:01:37;;;;;;;4.57;0.65;;;;;;;5.14;76.80;100661.50;4888671;29;20083;-77
2022/01/28 01:04:03;;;;;;;8.27;0.90;;;;;;;5.16;77.55;100691.50;4900516;29;20645;-77
2022/01/28 01:06:29;;;;;;;2.35;0.65;;;;;;;5.16;77.27;100694.16;4913089;29;20040;-77
2022/01/28 01:08:54;;;;;;;6.72;0.95;;;;;;;5.10;77.02;100708.19;4920284;29;20032;-77
2022/01/28 01:11:22;;;;;;;5.72;1.02;;;;;;;5.30;76.30;100714.03;4902603;29;20363;-77
2022/01/28 01:13:49;;;;;;;4.53;0.80;;;;;;;5.35;74.12;100734.84;4888397;29;20032;-77
2022/01/28 01:16:21;;;;;;;7.15;1.40;;;;;;;5.47;74.12;100724.69;4902706;29;20032;-78
2022/01/28 01:18:53;;;;;;;6.07;0.60;;;;;;;5.40;73.27;100732.53;4902346;29;20062;-78
2022/01/28 01:21:23;;;;;;;7.65;1.15;;;;;;;5.41;73.46;100751.03;4902265;29;20032;-77
2022/01/28 01:23:52;;;;;;;4.22;0.65;;;;;;;5.45;72.13;100766.72;4921338;29;20127;-77
2022/01/28 01:26:18;;;;;;;3.22;0.52;;;;;;;5.40;70.99;100752.03;4924724;29;20040;-78
2022/01/28 01:28:44;;;;;;;3.58;0.73;;;;;;;5.47;71.99;100770.06;4902575;29;20032;-77
2022/01/28 01:31:14;;;;;;;3.63;1.02;;;;;;;5.40;71.20;100764.56;4901949;29;20046;-77
2022/01/28 01:33:48;;;;;;;4.25;0.73;;;;;;;5.36;71.02;100782.72;4908072;29;20038;-77
2022/01/28 01:36:14;;;;;;;2.63;0.75;;;;;;;5.07;72.31;100740.50;4918692;29;20680;-78
2022/01/28 01:38:41;;;;;;;3.88;0.80;;;;;;;5.35;72.32;100812.22;4901995;29;20036;-77
2022/01/28 01:41:15;;;;;;;3.17;0.47;;;;;;;5.34;73.18;100810.56;4870960;29;20035;-77
2022/01/28 01:52:05;;;;;;;3.60;0.60;;;;;;;5.18;72.11;100859.38;4919021;29;20042;-77
2022/01/28 01:54:35;;;;;;;1.67;0.70;;;;;;;5.38;70.10;100871.44;4902171;29;20040;-77
2022/01/28 01:57:02;;;;;;;2.58;0.50;;;;;;;5.32;71.79;100865.91;4919278;29;20042;-77
2022/01/28 01:59:27;;;;;;;3.75;0.45;;;;;;;5.30;72.27;100859.94;4918104;29;20035;-78
2022/01/28 02:01:53;;;;;;;2.50;0.50;;;;;;;5.29;70.41;100900.94;4919034;29;20028;-77
2022/01/28 02:04:19;;;;;;;5.47;0.50;;;;;;;5.31;69.95;100901.63;4902411;29;20111;-78
2022/01/28 02:06:44;;;;;;;2.35;0.55;;;;;;;5.37;68.87;100895.63;4918274;29;20043;-78
2022/01/28 02:09:10;;;;;;;2.63;0.70;;;;;;;5.29;68.53;100919.59;4918910;29;20086;-78
2022/01/28 02:11:35;;;;;;;5.50;0.60;;;;;;;5.36;68.83;100921.47;4919667;29;20115;-77
2022/01/28 02:14:02;;;;;;;3.22;0.52;;;;;;;5.37;68.93;100911.66;4920581;29;20056;-77
2022/01/28 02:16:28;;;;;;;2.65;0.43;;;;;;;5.39;68.11;100949.66;4868787;29;20035;-77
2022/01/28 02:18:55;;;;;;;1.92;0.30;;;;;;;5.29;69.15;100935.63;4900222;29;20458;-78
2022/01/28 02:21:21;;;;;;;2.28;0.60;;;;;;;5.33;69.22;100967.16;4908391;29;20043;-77
2022/01/28 02:23:51;;;;;;;2.05;0.50;;;;;;;5.19;68.87;100957.91;4900427;29;20036;-78
2022/01/28 02:26:17;;;;;;;0.98;0.30;;;;;;;5.33;67.73;100955.63;4885678;29;20134;-77
2022/01/28 02:28:47;;;;;;;1.13;0.32;;;;;;;5.23;67.96;100995.81;4901374;29;20608;-77
2022/01/28 02:31:18;;;;;;;2.03;0.30;;;;;;;5.28;66.98;100988.16;4916956;29;20032;-77
2022/01/28 02:33:43;;;;;;;1.65;0.32;;;;;;;5.27;69.06;100993.66;4917681;29;20040;-77
2022/01/28 02:36:09;;;;;;;0.73;0.20;;;;;;;5.28;68.41;101014.00;4900800;29;20442;-77
2022/01/28 02:38:35;;;;;;;1.38;0.30;;;;;;;5.03;68.76;101008.50;4901304;29;20047;-77
2022/01/28 02:41:02;;;;;;;0.98;0.20;;;;;;;5.13;69.75;101019.94;4917259;29;20127;-77
2022/01/28 02:43:42;;;;;;;1.17;0.17;;;;;;;5.23;69.59;101033.16;4918638;29;20184;-78
2022/01/28 02:46:11;;;;;;;1.00;0.30;;;;;;;5.13;69.38;101027.94;4902835;29;20031;-77
2022/01/28 02:48:40;;;;;;;0.50;0.10;;;;;;;5.02;71.17;101051.34;4885838;29;20441;-78
2022/01/28 02:51:18;;;;;;;1.13;0.20;;;;;;;5.09;69.53;101071.91;4916732;29;20046;-78
2022/01/28 02:56:35;;;;;;;1.52;0.28;;;;;;;5.10;70.23;101052.25;4917500;29;20044;-77
2022/01/28 02:58:57;;;;;;;0.47;0.20;;;;;;;5.17;69.73;101057.78;4903307;29;20044;-77
2022/01/28 03:01:23;;;;;;;0.25;0.10;;;;;;;5.18;68.88;101078.13;4900545;29;20040;-77
2022/01/28 03:03:51;;;;;;;0.70;0.20;;;;;;;5.24;68.89;101093.50;4917442;29;20483;-77
2022/01/28 03:06:18;;;;;;;0.70;0.30;;;;;;;5.03;70.16;101079.69;4900378;29;20028;-77
2022/01/28 03:08:52;;;;;;;0.80;0.20;;;;;;;5.08;70.32;101099.56;4916432;29;20038;-77
2022/01/28 03:14:14;;;;;;;0.22;0.10;;;;;;;4.82;70.76;101114.69;4918344;29;20043;-78
2022/01/28 03:16:57;;;;;;;1.00;0.20;;;;;;;5.09;69.95;101127.91;4900678;29;20031;-77
2022/01/28 03:19:26;;;;;;;0.65;0.20;;;;;;;5.03;70.01;101136.53;4901267;29;20203;-77
2022/01/28 03:21:55;;;;;;;0.40;0.17;;;;;;;5.01;69.99;101133.19;4885048;29;20111;-77
2022/01/28 03:24:23;;;;;;;1.25;0.20;;;;;;;4.99;70.30;101145.84;4908297;29;20111;-77
2022/01/28 03:26:51;;;;;;;0.75;0.20;;;;;;;5.01;70.10;101156.38;4904149;29;20032;-77
2022/01/28 03:29:17;;;;;;;1.10;0.17;;;;;;;4.94;70.02;101161.47;4885759;29;20031;-77
2022/01/28 03:31:42;;;;;;;1.23;0.20;;;;;;;5.08;69.94;101168.09;4916963;29;20032;-77
2022/01/28 03:34:08;;;;;;;0.68;0.20;;;;;;;4.92;70.62;101164.28;4917449;29;20156;-77
2022/01/28 03:36:33;;;;;;;0.52;0.10;;;;;;;4.88;69.67;101183.41;4898145;29;20095;-77
2022/01/28 03:38:59;;;;;;;0.40;0.10;;;;;;;5.03;69.63;101181.03;4915857;29;20024;-77
2022/01/28 03:41:25;;;;;;;0.93;0.20;;;;;;;4.71;70.68;101163.75;4917191;29;20520;-77
2022/01/28 03:43:51;;;;;;;0.57;0.10;;;;;;;4.55;71.03;101167.09;4916968;29;20028;-78
2022/01/28 03:46:17;;;;;;;0.50;0.20;;;;;;;4.68;70.99;101185.38;4917333;29;20056;-77
2022/01/28 03:48:43;;;;;;;1.13;0.20;;;;;;;4.77;70.67;101212.94;4899686;29;20111;-78
2022/01/28 03:51:08;;;;;;;0.17;0.10;;;;;;;4.66;70.76;101206.84;4916034;29;20091;-78
2022/01/28 03:53:34;;;;;;;0.40;0.10;;;;;;;4.86;68.88;101236.03;4916286;29;20040;-77
2022/01/28 03:56:00;;;;;;;0.47;0.10;;;;;;;4.75;69.66;101253.09;4916245;29;20032;-77
2022/01/28 03:58:26;;;;;;;0.55;0.20;;;;;;;4.71;70.39;101255.22;4917288;29;20123;-77
2022/01/28 04:00:55;;;;;;;0.32;0.13;;;;;;;4.64;70.38;101251.50;4899977;29;20028;-78
2022/01/28 04:13:47;;;;;;;0.60;0.15;;;;;;;4.39;74.44;101324.13;4916314;29;20039;-77
2022/01/28 04:18:48;;;;;;;0.63;0.10;;;;;;;4.33;74.69;101330.88;4917026;29;20064;-77
2022/01/28 04:21:14;;;;;;;0.73;0.20;;;;;;;4.32;74.67;101342.50;4900228;29;20048;-77
2022/01/28 04:23:39;;;;;;;0.55;0.10;;;;;;;4.45;71.94;101351.03;4900817;29;20439;-77
2022/01/28 04:26:05;;;;;;;0.73;0.10;;;;;;;4.53;70.79;101355.63;4916890;29;20111;-77
2022/01/28 04:28:31;;;;;;;1.17;0.20;;;;;;;4.47;72.34;101357.06;4918556;29;20118;-77
2022/01/28 04:30:56;;;;;;;0.73;0.17;;;;;;;4.42;70.72;101374.47;4917210;29;20051;-77
2022/01/28 04:33:21;;;;;;;0.30;0.17;;;;;;;4.59;69.65;101397.69;4918445;29;20054;-77
2022/01/28 04:35:50;;;;;;;0.10;0.00;;;;;;;4.59;70.37;101405.69;4915619;29;20111;-77
2022/01/28 04:43:32;;;;;;;0.40;0.10;;;;;;;4.46;69.76;101390.00;4915600;29;20187;-77
2022/01/28 04:46:20;;;;;;;0.25;0.10;;;;;;;4.56;68.07;101424.63;4901165;29;20127;-77
2022/01/28 04:48:54;;;;;;;0.88;0.10;;;;;;;4.29;69.22;101406.75;4904991;29;20484;-77
2022/01/28 04:54:06;;;;;;;0.68;0.22;;;;;;;4.62;67.41;101460.53;4919101;29;20059;-77
2022/01/28 05:23:20;;;;;;;0.25;0.10;;;;;;;4.23;73.88;101530.69;4918431;29;20051;-77
2022/01/28 05:23:25;;;;;;;0.03;0.00;;;;;;;4.14;73.83;101536.00;4917431;29;20083;-77
2022/01/28 05:28:28;;;;;;;0.88;0.20;;;;;;;4.14;73.35;101552.84;4903623;29;20043;-77
2022/01/28 05:30:53;;;;;;;2.70;0.15;;;;;;;4.24;72.48;101559.03;4912820;29;20101;-77
2022/01/28 05:33:19;;;;;;;0.40;0.20;;;;;;;4.25;72.15;101562.53;4917973;29;20098;-77
2022/01/28 05:35:44;;;;;;;0.50;0.20;;;;;;;4.24;72.06;101571.50;4918169;29;20040;-77
2022/01/28 05:38:10;;;;;;;0.65;0.20;;;;;;;4.31;70.76;101563.81;4879418;29;20490;-77
2022/01/28 05:40:35;;;;;;;1.25;0.20;;;;;;;4.30;69.27;101599.41;4914358;29;20787;-77
2022/01/28 05:43:00;;;;;;;0.30;0.10;;;;;;;4.35;67.49;101586.50;4917507;29;20182;-77
2022/01/28 05:45:44;;;;;;;0.43;0.20;;;;;;;4.41;65.71;101588.63;4918889;29;20032;-80
2022/01/28 05:48:11;;;;;;;1.20;0.20;;;;;;;4.41;65.39;101608.13;4916638;29;20032;-77
2022/01/28 05:50:36;;;;;;;0.70;0.20;;;;;;;4.25;64.35;101631.78;4918416;29;20036;-78
2022/01/28 05:53:03;;;;;;;0.60;0.17;;;;;;;4.39;64.65;101615.38;4904184;29;20039;-77
2022/01/28 05:55:29;;;;;;;0.82;0.13;;;;;;;4.34;63.14;101612.31;4899358;29;20359;-77
2022/01/28 05:57:54;;;;;;;0.32;0.10;;;;;;;4.40;63.29;101635.75;4885641;29;20032;-77
2022/01/28 06:00:19;;;;;;;1.13;0.20;;;;;;;4.36;62.07;101630.81;4893298;29;20028;-77
2022/01/28 06:02:45;;;;;;;0.28;0.10;;;;;;;4.22;61.51;101632.91;4916233;29;20039;-77
2022/01/28 06:05:11;;;;;;;1.23;0.20;;;;;;;4.35;62.12;101629.97;4901533;29;20401;-77
2022/01/28 06:07:43;;;;;;;0.52;0.10;;;;;;;4.20;62.18;101628.69;4915090;29;20032;-77
2022/01/28 06:10:10;;;;;;;0.40;0.10;;;;;;;4.23;60.04;101681.69;4917498;29;20043;-77
2022/01/28 06:12:44;;;;;;;0.50;0.15;;;;;;;4.33;59.30;101661.25;4917504;29;20478;-78
2022/01/28 06:15:10;;;;;;;0.63;0.10;;;;;;;4.34;59.88;101678.94;4915597;29;20123;-78
2022/01/28 06:17:35;;;;;;;0.65;0.15;;;;;;;4.33;59.48;101684.38;4914737;29;20370;-78
2022/01/28 06:20:03;;;;;;;0.22;0.10;;;;;;;4.19;59.98;101689.13;4898322;29;20067;-77
2022/01/28 06:22:28;;;;;;;0.75;0.10;;;;;;;4.16;59.69;101709.84;4917224;29;20020;-78
2022/01/28 06:24:54;;;;;;;0.43;0.20;;;;;;;4.20;58.84;101706.78;4914759;29;20043;-77
2022/01/28 06:27:19;;;;;;;0.80;0.13;;;;;;;4.23;57.33;101700.34;4914651;29;20166;-77
2022/01/28 06:29:44;;;;;;;1.35;0.20;;;;;;;4.14;58.90;101711.78;4917201;29;20059;-77
2022/01/28 06:32:11;;;;;;;1.85;0.20;;;;;;;4.14;57.09;101747.28;4883132;29;20036;-78
2022/01/28 06:34:38;;;;;;;0.43;0.10;;;;;;;4.17;58.76;101741.69;4912606;29;20031;-77
2022/01/28 06:37:04;;;;;;;0.43;0.10;;;;;;;4.15;58.88;101750.78;4900499;29;20482;-77
2022/01/28 06:39:32;;;;;;;0.82;0.10;;;;;;;4.09;59.07;101736.19;4885268;29;20390;-77
2022/01/28 06:41:57;;;;;;;0.88;0.10;;;;;;;4.02;57.62;101740.38;4899184;29;20462;-77
2022/01/28 06:44:23;;;;;;;0.13;0.00;;;;;;;4.03;57.96;101752.69;4917553;29;20051;-77
2022/01/28 06:46:48;;;;;;;0.10;0.10;;;;;;;4.03;58.69;101779.31;4900497;29;20040;-77
2022/01/28 06:49:15;;;;;;;1.27;0.17;;;;;;;4.01;58.26;101767.97;4918264;29;20462;-77
2022/01/28 06:51:40;;;;;;;0.35;0.10;;;;;;;4.09;58.18;101789.44;4901148;29;20036;-77
2022/01/28 06:54:06;;;;;;;0.90;0.10;;;;;;;3.91;58.03;101804.38;4916741;29;20128;-77
2022/01/28 06:56:31;;;;;;;0.50;0.10;;;;;;;3.91;57.48;101791.91;4918154;29;20028;-77
2022/01/28 06:58:56;;;;;;;0.40;0.10;;;;;;;3.91;57.82;101799.03;4917459;29;20071;-76
2022/01/28 07:01:22;;;;;;;0.65;0.10;;;;;;;3.89;58.85;101832.94;4916901;29;20086;-75
2022/01/28 07:03:47;;;;;;;0.38;0.10;;;;;;;3.94;57.64;101850.22;4918398;29;20028;-77
2022/01/28 07:06:13;;;;;;;0.22;0.10;;;;;;;3.86;58.42;101868.63;4897237;29;20071;-76
2022/01/28 07:08:39;;;;;;;0.20;0.10;;;;;;;3.62;59.76;101847.59;4907381;29;20601;-76
2022/01/28 07:11:04;;;;;;;0.20;0.10;;;;;;;3.66;60.23;101857.00;4917308;29;20047;-77
2022/01/28 07:13:30;;;;;;;0.60;0.20;;;;;;;3.66;58.56;101878.28;4899622;29;20043;-77
2022/01/28 07:15:55;;;;;;;0.80;0.17;;;;;;;3.79;58.85;101899.41;4916946;29;20964;-77
2022/01/28 07:18:21;;;;;;;0.93;0.10;;;;;;;3.80;59.53;101902.91;4916937;29;20051;-77
2022/01/28 07:20:47;;;;;;;0.30;0.13;;;;;;;3.78;59.06;101913.72;4884820;29;20051;-77
2022/01/28 07:23:12;;;;;;;1.08;0.10;;;;;;;3.67;57.68;101917.25;4905974;29;20064;-77
2022/01/28 07:25:44;;;;;;;0.63;0.10;;;;;;;3.74;58.79;101922.91;4909532;29;20080;-77
2022/01/28 07:28:10;;;;;;;0.25;0.10;;;;;;;3.71;58.99;101921.38;4885607;29;20040;-78
2022/01/28 07:30:35;;;;;;;0.80;0.13;;;;;;;3.60;59.07;101931.19;4882760;29;20043;-77
2022/01/28 07:33:05;;;;;;;0.32;0.20;;;;;;;3.55;58.91;101915.63;4917105;29;20036;-77
2022/01/28 07:35:30;;;;;;;0.65;0.20;;;;;;;3.59;59.19;101932.16;4883943;29;20686;-77
2022/01/28 07:37:56;;;;;;;0.47;0.08;;;;;;;3.58;59.71;101939.31;4892774;29;20043;-76
2022/01/28 07:40:21;;;;;;;1.23;0.10;;;;;;;3.38;60.62;101932.09;4916079;29;20039;-76
2022/01/28 07:42:46;;;;;;;0.40;0.03;;;;;;;3.32;62.48;101952.06;4913414;29;20028;-76
2022/01/28 07:45:16;;;;;;;0.70;0.20;;;;;;;3.42;62.22;101961.00;4899788;29;20032;-77
2022/01/28 07:47:43;;;;;;;1.52;0.10;;;;;;;3.43;62.31;101975.97;4917390;29;20062;-78
2022/01/28 07:50:10;;;;;;;1.10;0.20;;;;;;;3.42;63.27;101976.97;4884270;29;20032;-77
2022/01/28 07:52:36;;;;;;;0.50;0.20;;;;;;;3.37;62.73;101986.28;4917369;29;20032;-77
2022/01/28 07:55:02;;;;;;;2.40;0.10;;;;;;;3.35;62.85;101981.09;4899938;29;20062;-77
2022/01/28 07:57:30;;;;;;;0.60;0.10;;;;;;;3.34;62.97;101992.69;4900068;29;20394;-77
2022/01/28 07:59:55;;;;;;;1.23;0.10;;;;;;;3.45;60.32;101997.16;4917557;29;20344;-77
2022/01/28 08:02:20;;;;;;;1.63;0.10;;;;;;;3.46;60.52;101999.69;4900584;29;20032;-78
2022/01/28 08:04:46;;;;;;;0.70;0.10;;;;;;;3.43;59.62;102007.06;4918057;29;20450;-77
2022/01/28 08:07:11;;;;;;;0.65;0.20;;;;;;;3.33;61.06;101998.13;4884650;29;20040;-77
2022/01/28 08:09:37;;;;;;;1.27;0.30;;;;;;;3.36;61.74;102016.53;4882400;29;20036;-76
2022/01/28 08:12:02;;;;;;;0.88;0.20;;;;;;;3.43;61.60;102025.69;4917480;29;20068;-76
2022/01/28 08:14:30;;;;;;;2.15;0.20;;;;;;;3.43;61.88;102023.88;4899707;29;20043;-77
2022/01/28 08:16:56;;;;;;;0.55;0.17;;;;;;;3.50;61.51;102032.22;4916711;29;20056;-76
2022/01/28 08:19:21;;;;;;;1.23;0.10;;;;;;;3.33;60.93;102025.59;4915769;29;20072;-76
2022/01/28 08:21:47;;;;;;;1.15;0.20;;;;;;;3.38;61.50;102035.84;4867903;29;20028;-76
2022/01/28 08:24:12;;;;;;;0.70;0.30;;;;;;;3.48;59.47;102050.97;4906438;29;20045;-76
2022/01/28 08:26:37;;;;;;;1.27;0.20;;;;;;;3.35;59.24;102041.44;4917008;29;20333;-76
2022/01/28 08:29:05;;;;;;;1.10;0.10;;;;;;;3.40;59.53;102071.16;4888561;29;20062;-76
2022/01/28 08:31:31;;;;;;;0.82;0.17;;;;;;;3.50;59.29;102078.28;4905174;29;20032;-76
2022/01/28 08:33:56;;;;;;;3.05;0.35;;;;;;;3.30;59.58;102055.94;4904595;29;20036;-76
2022/01/28 08:36:22;;;;;;;3.15;0.30;;;;;;;3.48;58.46;102087.38;4868764;29;20449;-76
2022/01/28 08:38:49;;;;;;;1.58;0.20;;;;;;;3.38;56.42;102097.03;4903535;29;20382;-76
2022/01/28 08:41:15;;;;;;;2.78;0.20;;;;;;;3.45;56.98;102106.25;4920662;29;20072;-76
2022/01/28 08:43:42;;;;;;;0.73;0.20;;;;;;;3.37;56.36;102101.53;4903899;29;20423;-76
2022/01/28 08:46:08;;;;;;;3.03;0.30;;;;;;;3.55;55.54;102119.69;4920904;29;20027;-76
2022/01/28 08:48:33;;;;;;;1.23;0.20;;;;;;;3.43;55.57;102100.19;4920389;29;20538;-77
2022/01/28 08:50:59;;;;;;;2.65;0.25;;;;;;;3.64;54.95;102118.94;4904299;29;20119;-78
2022/01/28 08:53:25;;;;;;;0.90;0.20;;;;;;;3.73;54.70;102135.03;4904468;29;20119;-76
2022/01/28 08:55:50;;;;;;;1.13;0.30;;;;;;;3.65;54.58;102125.97;4919775;29;20111;-76
2022/01/28 08:58:16;;;;;;;1.25;0.35;;;;;;;3.67;55.70;102132.00;4920917;29;20469;-76
2022/01/28 09:00:45;;;;;;;1.30;0.30;;;;;;;3.63;55.45;102127.91;4919949;29;20447;-76
2022/01/28 09:03:12;;;;;;;2.53;0.22;;;;;;;3.60;54.95;102109.50;4921074;29;20016;-76
2022/01/28 09:05:37;;;;;;;2.92;0.35;;;;;;;3.75;55.12;102135.75;4920048;29;20060;-76
2022/01/28 09:08:08;;;;;;;1.25;0.30;;;;;;;3.76;55.63;102139.28;4888783;29;20071;-76
2022/01/28 09:10:37;;;;;;;1.80;0.20;;;;;;;3.76;56.18;102148.09;4920933;29;20031;-76
2022/01/28 09:15:37;;;;;;;3.08;0.30;;;;;;;3.83;55.61;102156.44;4922495;29;20074;-76
2022/01/28 09:18:03;;;;;;;1.35;0.25;;;;;;;3.76;56.48;102142.78;4905186;29;20407;-76
2022/01/28 09:20:31;;;;;;;1.10;0.10;;;;;;;3.86;54.95;102158.03;4912755;29;20052;-76
2022/01/28 09:23:00;;;;;;;1.77;0.30;;;;;;;3.89;53.84;102155.13;4921273;29;20701;-76
2022/01/28 09:25:26;;;;;;;1.92;0.40;;;;;;;3.96;54.33;102159.81;4919145;29;20032;-76
2022/01/28 09:27:52;;;;;;;0.50;0.30;;;;;;;3.97;54.58;102168.66;4903493;29;20032;-76
2022/01/28 09:30:18;;;;;;;1.45;0.20;;;;;;;3.96;54.63;102173.13;4918371;29;20114;-76
2022/01/28 09:32:43;;;;;;;0.75;0.20;;;;;;;3.97;55.12;102168.66;4919233;29;20047;-76
2022/01/28 09:35:09;;;;;;;0.60;0.20;;;;;;;4.00;54.98;102179.06;4918134;29;20042;-76
2022/01/28 09:37:35;;;;;;;1.73;0.20;;;;;;;3.92;55.55;102165.53;4899069;29;20040;-76
2022/01/28 09:40:01;;;;;;;2.00;0.20;;;;;;;3.98;56.70;102179.19;4900354;29;20036;-76
2022/01/28 09:42:30;;;;;;;2.83;0.20;;;;;;;3.95;57.47;102182.09;4868385;29;20123;-77
2022/01/28 09:44:57;;;;;;;1.38;0.20;;;;;;;3.88;57.23;102166.75;4869528;29;20095;-76
2022/01/28 09:47:22;;;;;;;1.63;0.30;;;;;;;3.86;59.48;102168.69;4919409;29;20354;-77
2022/01/28 09:49:48;;;;;;;0.93;0.30;;;;;;;3.90;57.81;102175.44;4903340;29;20032;-76
2022/01/28 09:52:14;;;;;;;0.73;0.25;;;;;;;3.96;58.22;102197.09;4901992;29;20028;-76
2022/01/28 09:54:43;;;;;;;0.47;0.13;;;;;;;3.98;57.92;102191.69;4918230;29;20050;-76
2022/01/28 09:57:09;;;;;;;2.90;0.30;;;;;;;4.01;59.35;102202.09;4885532;29;20032;-76
2022/01/28 09:59:35;;;;;;;0.95;0.28;;;;;;;3.92;60.01;102185.00;4918274;29;20063;-76
2022/01/28 10:02:01;;;;;;;0.28;0.13;;;;;;;3.93;60.82;102186.69;4884857;29;20032;-78
2022/01/28 10:04:26;;;;;;;1.27;0.22;;;;;;;3.92;62.15;102193.00;4918443;29;20053;-78
2022/01/28 10:06:54;;;;;;;1.17;0.30;;;;;;;3.97;60.53;102195.28;4902075;29;20040;-77
2022/01/28 10:09:19;;;;;;;1.83;0.30;;;;;;;3.87;61.59;102186.34;4886556;29;20031;-78
2022/01/28 10:11:49;;;;;;;0.88;0.20;;;;;;;3.91;63.40;102203.78;4901805;29;20040;-79
2022/01/28 10:14:21;;;;;;;1.45;0.17;;;;;;;3.77;63.47;102188.88;4918590;29;20119;-78
2022/01/28 10:16:57;;;;;;;1.00;0.40;;;;;;;3.83;62.93;102216.84;4902435;29;20046;-78
2022/01/28 10:19:26;;;;;;;0.77;0.20;;;;;;;3.73;63.97;102200.75;4918455;29;20080;-78
2022/01/28 10:21:53;;;;;;;0.80;0.28;;;;;;;3.87;63.01;102218.28;4918265;29;20020;-78
2022/01/28 10:24:24;;;;;;;0.85;0.30;;;;;;;3.88;61.87;102214.69;4918434;29;20127;-78
2022/01/28 10:27:05;;;;;;;0.75;0.20;;;;;;;3.91;62.54;102217.94;4901694;29;20032;-78
2022/01/28 10:29:34;;;;;;;0.63;0.10;;;;;;;3.86;64.44;102217.44;4918538;29;20031;-78
2022/01/28 10:32:04;;;;;;;0.95;0.20;;;;;;;3.76;63.25;102209.34;4918239;29;20047;-78
2022/01/28 10:34:32;;;;;;;0.70;0.20;;;;;;;3.86;60.98;102205.94;4901566;29;20124;-79
2022/01/28 10:37:19;;;;;;;0.88;0.28;;;;;;;3.84;58.54;102200.75;4917800;29;20450;-77
2022/01/28 10:39:54;;;;;;;1.88;0.35;;;;;;;3.76;57.02;102168.56;4916765;29;20160;-78
2022/01/28 10:42:28;;;;;;;2.75;0.38;;;;;;;4.04;57.82;102223.16;4917845;29;20016;-78
2022/01/28 10:45:12;;;;;;;0.65;0.28;;;;;;;4.06;58.62;102226.53;4900756;29;20119;-77
2022/01/28 10:47:45;;;;;;;0.73;0.20;;;;;;;4.03;58.97;102223.25;4917573;29;20502;-78
2022/01/28 10:50:28;;;;;;;1.38;0.40;;;;;;;4.06;58.41;102225.69;4917873;29;20028;-78
2022/01/28 10:52:57;;;;;;;1.17;0.25;;;;;;;4.12;57.78;102234.03;4897899;29;20032;-78
2022/01/28 10:55:22;;;;;;;1.75;0.17;;;;;;;4.06;57.41;102218.53;4898527;29;20415;-78
2022/01/28 10:58:06;;;;;;;0.65;0.20;;;;;;;4.16;55.63;102226.66;4852271;29;20025;-78
2022/01/28 11:00:35;;;;;;;0.88;0.22;;;;;;;4.28;55.26;102235.50;4907353;29;20369;-78
2022/01/28 11:03:03;;;;;;;0.90;0.20;;;;;;;4.32;55.84;102232.44;4902867;29;20032;-78
2022/01/28 11:05:32;;;;;;;1.48;0.20;;;;;;;4.28;55.01;102207.03;4916638;29;20530;-78
2022/01/28 11:07:59;;;;;;;2.05;0.55;;;;;;;4.42;55.94;102222.72;4917666;29;20167;-78
2022/01/28 11:10:24;;;;;;;2.13;0.20;;;;;;;4.49;55.40;102233.75;4900618;29;20028;-77
2022/01/28 11:12:54;;;;;;;1.35;0.20;;;;;;;4.50;54.34;102227.44;4898655;29;20043;-77
2022/01/28 11:15:20;;;;;;;1.60;0.30;;;;;;;4.47;54.08;102211.72;4900703;29;20119;-77
2022/01/28 11:17:47;;;;;;;1.45;0.15;;;;;;;4.54;53.91;102226.22;4901557;29;20053;-78
2022/01/28 11:20:17;;;;;;;1.33;0.20;;;;;;;4.43;52.54;102207.59;4916410;29;20303;-78
2022/01/28 11:23:08;;;;;;;1.63;0.30;;;;;;;4.41;52.08;102214.88;4899937;29;20127;-80
2022/01/28 11:26:07;;;;;;;0.75;0.15;;;;;;;4.48;50.77;102227.56;4912955;29;20036;-77
2022/01/28 11:28:46;;;;;;;0.35;0.10;;;;;;;4.57;51.47;102220.66;4894209;29;20358;-77
2022/01/28 11:31:12;;;;;;;1.95;0.30;;;;;;;4.55;51.13;102214.59;4916463;29;20028;-78
2022/01/28 11:33:58;;;;;;;1.73;0.20;;;;;;;4.63;50.67;102217.47;4899289;29;20135;-78
2022/01/28 11:36:34;;;;;;;;;;;;;;;4.62;51.06;102222.94;4899443;29;20032;-78
2022/01/28 11:39:19;;;;;;;1.38;0.20;;;;;;;4.58;50.66;102216.16;4917003;29;19915;-78
2022/01/28 11:41:59;;;;;;;;;;;;;;;4.67;51.38;102221.59;4918095;29;20634;-77
2022/01/28 11:44:40;;;;;;;3.10;0.20;;;;;;;4.66;51.34;102219.88;4899701;29;20277;-80
2022/01/28 11:47:08;;;;;;;1.30;0.10;;;;;;;4.57;51.07;102210.00;4915842;29;20024;-78
2022/01/28 11:49:52;;;;;;;1.42;0.30;;;;;;;4.61;51.71;102198.09;4890957;29;20055;-79
2022/01/28 11:52:45;;;;;;;1.30;0.30;;;;;;;4.74;51.93;102205.09;4899543;29;20032;-77
2022/01/28 11:55:25;;;;;;;2.08;0.15;;;;;;;4.75;51.45;102204.94;4895296;29;20119;-78
2022/01/28 11:58:02;;;;;;;2.90;0.45;;;;;;;4.73;51.37;102193.56;4904111;29;20474;-79
2022/01/28 12:00:38;;;;;;;2.92;0.30;;;;;;;4.82;51.61;102206.13;4917438;29;20405;-78
2022/01/28 12:03:23;;;;;;;2.65;0.40;;;;;;;4.94;51.97;102199.78;4919188;29;20028;-77
2022/01/28 12:05:54;;;;;;;6.35;0.63;;;;;;;4.95;51.78;102192.63;4893906;29;20181;-78
2022/01/28 12:08:20;;;;;;;1.45;0.20;;;;;;;5.03;51.68;102197.31;4920748;29;20410;-78
2022/01/28 12:10:49;;;;;;;1.33;0.20;;;;;;;4.97;52.47;102185.34;4917601;29;20028;-78
2022/01/28 12:13:17;;;;;;;1.05;0.30;;;;;;;5.04;52.55;102194.53;4900422;29;20297;-78
2022/01/28 12:16:11;;;;;;;3.17;0.30;;;;;;;5.08;52.73;102201.28;4920457;29;20032;-78
2022/01/28 12:18:47;;;;;;;1.70;0.30;;;;;;;5.14;53.05;102192.78;4906807;29;20153;-80
2022/01/28 12:21:15;;;;;;;3.65;0.40;;;;;;;5.15;53.56;102204.28;4920508;29;20039;-78
2022/01/28 12:23:40;;;;;;;0.57;0.20;;;;;;;5.07;54.50;102196.09;4901914;29;20024;-81
2022/01/28 12:26:06;;;;;;;3.15;0.30;;;;;;;5.08;54.62;102203.97;4904164;29;20039;-77
2022/01/28 12:28:31;;;;;;;2.50;0.35;;;;;;;5.10;55.37;102210.03;4919552;29;20043;-76
2022/01/28 12:31:02;;;;;;;4.00;0.50;;;;;;;4.99;56.47;102190.56;4919846;29;20028;-78
2022/01/28 12:33:33;;;;;;;3.03;0.68;;;;;;;4.92;57.48;102187.56;4923688;29;20036;-84
2022/01/28 12:36:06;;;;;;;2.85;0.50;;;;;;;4.99;57.44;102204.72;4926933;29;20070;-85
2022/01/28 12:38:33;;;;;;;6.80;0.43;;;;;;;4.94;57.59;102190.94;4924859;29;20028;-83
2022/01/28 12:41:09;;;;;;;2.92;0.40;;;;;;;5.06;58.22;102205.06;4924689;29;20083;-82
2022/01/28 12:43:38;;;;;;;1.50;0.25;;;;;;;5.11;58.05;102213.53;4909846;29;20451;-80
2022/01/28 12:46:15;;;;;;;4.75;0.50;;;;;;;5.08;58.26;102208.47;4929628;29;20035;-82
2022/01/28 12:48:55;;;;;;;4.30;0.32;;;;;;;4.98;57.95;102187.03;4914255;29;20031;-81
2022/01/28 12:51:23;;;;;;;1.33;0.50;;;;;;;5.03;58.72;102206.16;4926993;29;20118;-82
2022/01/28 12:53:54;;;;;;;5.50;0.65;;;;;;;5.01;59.18;102193.94;4907954;29;20036;-82
2022/01/28 12:56:31;;;;;;;3.05;0.22;;;;;;;5.19;59.61;102217.25;4924049;29;20032;-82
2022/01/28 12:58:57;;;;;;;1.58;0.38;;;;;;;5.07;59.50;102190.75;4924775;29;20332;-79
2022/01/28 13:01:22;;;;;;;7.88;0.65;;;;;;;5.16;60.02;102209.50;4908777;29;20076;-82
2022/01/28 13:04:15;;;;;;;2.80;0.47;;;;;;;5.14;60.20;102192.78;4896640;29;20111;-81
2022/01/28 13:07:01;;;;;;;3.72;0.45;;;;;;;5.14;60.05;102184.78;4907560;29;20362;-81
2022/01/28 13:09:31;;;;;;;2.55;0.63;;;;;;;4.94;60.93;102162.44;4909635;29;20366;-81